Informes METAR cercanos

 

LELL - Sabadell, Spain
Distance from station: O 25km
Actualización: 30/05/2024 06:30:00
Despejado
Despejado
 Viento del S
Viento: S 4 km/h
Temperatura: 17°C
Rocío: 15°C
Humedad: 88%
Barómetro: 1013 hPa
Resumen: Despejado
Visibility: greater than 10 km
2024/05/30 04:30 LELL 300430Z AUTO 18002KT CAVOK 17/15 Q1013
LEBL - Barcelona Airpor, Spain
Distance from station: SO 38km
Actualización: 30/05/2024 06:30:00
Poco nuboso
Poco nuboso
 Viento del varies
Viento: varies 2 km/h
Temperatura: 17°C
Rocío: 15°C
Humedad: 88%
Barómetro: 1012 hPa
Clouds: Poco nuboso
Visibility: 10 km
Cloud details: Poco nuboso 457 m
2024/05/30 04:30 LEBL 300430Z VRB01KT 9999 FEW015 17/15 Q1012 NOSIG
 
LEGE - Gerona/Costa Bra, Spain
Distance from station: NE 52km
Actualización: 30/05/2024 06:30:00
Niebla, Cubierto
Niebla, Cubierto
 Viento del NE
Viento: NE 7 km/h
Temperatura: 15°C
Rocío: 15°C
Humedad: 100%
Barómetro: 1012 hPa
Resumen: Niebla
Clouds: Cubierto
Visibility: 1 km
Cloud details: Cubierto 61 m
2024/05/30 04:30 LEGE 300430Z 04004KT 0500 R19/0500D R01/1700N FG VV002 15/15 Q1012 BECMG 3000 BR
LERS - Reus (civ/Mil), Spain
Distance from station: OSO 111km
Actualización: 30/05/2024 06:30:00
Poco nuboso
Poco nuboso
 Viento del varies
Viento: varies 4 km/h
Temperatura: 16°C
Rocío: 15°C
Humedad: 94%
Barómetro: 1012 hPa
Clouds: Poco nuboso
Visibility: 10 km
Cloud details: Poco nuboso 305 m
2024/05/30 04:30 LERS 300430Z AUTO VRB02KT 9999 FEW010 16/15 Q1012
 
LESU - Pirineus/La Seu, Spain
Distance from station: NO 124km
Actualización: 29/05/2024 18:00:00
NOT Current
Poco nuboso
Poco nuboso
 Viento del SSO
Viento: SSO 17 km/h
Temperatura: 26°C
Rocío: 9°C
Humedad: 34%
Barómetro: 1016 hPa
Clouds: Poco nuboso
Visibility: 10 km
Cloud details: Poco nuboso 1829 m
2024/05/29 16:00 LESU 291600Z 20009KT 160V220 9999 FEW060 26/09 Q1016
LFMP - Perpignan/Rivesa, France
Distance from station: NNE 141km
Actualización: 30/05/2024 06:30:00
Muy nuboso
Muy nuboso
 Viento del ONO
Viento: ONO 17 km/h
Temperatura: 20°C
Rocío: 9°C
Humedad: 49%
Barómetro: 1012 hPa
Clouds: Muy nuboso
Visibility: 10 km
Cloud details: Parcialmente nuboso 3048 m
Muy nuboso 7620 m
2024/05/30 04:30 LFMP 300430Z AUTO 29009KT 9999 SCT100 BKN250 20/09 Q1012 NOSIG